Time;durP1;ratioP1;P1;durP2;ratioP2;P2;SDS_P1;SDS_P2;PMS_P1;PMS_P2;Temp;Humidity;BMP_temperature;BMP_pressure;BME280_temperature;BME280_humidity;BME280_pressure;Samples;Min_cycle;Max_cycle;Signal;HPM_P1;HPM_P2
2021/11/05 00:02:20;;;;;;;14.38;11.57;;;13.40;84.40;;;;;;5092517;28;20020;-80
2021/11/05 00:04:45;;;;;;;15.27;11.82;;;13.40;84.40;;;;;;5093466;28;20024;-81
2021/11/05 00:07:11;;;;;;;15.38;10.77;;;13.30;84.30;;;;;;5093397;28;20056;-80
2021/11/05 00:09:36;;;;;;;13.80;10.80;;;13.40;84.40;;;;;;5093410;28;20432;-80
2021/11/05 00:12:02;;;;;;;14.35;11.35;;;13.40;84.30;;;;;;5093375;28;20027;-80
2021/11/05 00:14:28;;;;;;;14.13;11.32;;;13.40;84.30;;;;;;5093397;28;20135;-80
2021/11/05 00:16:53;;;;;;;15.18;11.63;;;13.40;84.20;;;;;;5094381;28;20078;-80
2021/11/05 00:19:19;;;;;;;14.50;11.30;;;13.40;84.20;;;;;;5092890;28;20032;-80
2021/11/05 00:21:44;;;;;;;15.23;12.13;;;13.40;84.20;;;;;;5093174;28;20024;-80
2021/11/05 00:24:10;;;;;;;14.48;11.48;;;13.50;84.20;;;;;;5093133;28;20031;-79
2021/11/05 00:26:35;;;;;;;13.23;10.85;;;13.50;84.20;;;;;;5093056;28;20029;-80
2021/11/05 00:29:01;;;;;;;13.95;10.98;;;13.40;84.10;;;;;;5093094;28;20107;-80
2021/11/05 00:31:27;;;;;;;16.02;11.98;;;13.50;84.20;;;;;;5093089;28;20028;-80
2021/11/05 00:33:52;;;;;;;14.30;11.35;;;13.40;84.10;;;;;;5092981;28;20162;-80
2021/11/05 00:36:18;;;;;;;14.60;11.82;;;13.40;84.10;;;;;;5092769;28;20080;-80
2021/11/05 00:38:45;;;;;;;14.48;11.73;;;13.50;84.20;;;;;;5092824;28;20058;-79
2021/11/05 00:41:13;;;;;;;15.82;12.50;;;13.50;84.20;;;;;;5092669;28;20040;-80
2021/11/05 00:43:38;;;;;;;14.35;11.48;;;13.50;84.20;;;;;;5092849;28;20056;-79
2021/11/05 00:46:04;;;;;;;14.40;12.05;;;13.50;84.20;;;;;;5092546;28;20501;-80
2021/11/05 00:48:30;;;;;;;15.05;11.85;;;13.40;84.30;;;;;;5092909;28;20016;-80
2021/11/05 00:50:56;;;;;;;15.95;12.75;;;13.40;84.50;;;;;;5092528;28;20114;-80
2021/11/05 00:53:21;;;;;;;15.32;12.07;;;13.30;84.60;;;;;;5093879;28;20036;-80
2021/11/05 00:55:47;;;;;;;14.77;12.00;;;13.40;84.70;;;;;;5092356;28;20107;-80
2021/11/05 00:58:12;;;;;;;15.60;12.32;;;13.40;84.80;;;;;;5092496;28;20051;-79
2021/11/05 01:00:38;;;;;;;15.07;12.27;;;13.40;84.80;;;;;;5092422;28;20024;-80
2021/11/05 01:03:04;;;;;;;15.50;12.25;;;13.30;84.80;;;;;;5092438;28;20530;-79
2021/11/05 01:05:29;;;;;;;15.95;12.65;;;13.30;84.80;;;;;;5093489;28;20020;-80
2021/11/05 01:07:55;;;;;;;16.13;12.88;;;13.30;84.80;;;;;;5089652;28;20021;-80
2021/11/05 01:10:21;;;;;;;16.13;12.60;;;13.30;84.80;;;;;;5072083;28;20059;-80
2021/11/05 01:12:46;;;;;;;17.65;12.88;;;13.30;84.80;;;;;;5072016;28;20378;-79
2021/11/05 01:15:13;;;;;;;16.00;12.02;;;13.30;84.80;;;;;;5071581;28;20027;-80
2021/11/05 01:17:40;;;;;;;15.90;12.52;;;13.30;84.80;;;;;;5071765;28;20119;-80
2021/11/05 01:20:09;;;;;;;15.88;12.88;;;13.40;84.90;;;;;;5071850;28;20116;-80
2021/11/05 01:22:35;;;;;;;17.45;12.73;;;13.30;84.80;;;;;;5073032;28;20454;-80
2021/11/05 01:25:01;;;;;;;16.58;13.15;;;13.30;84.80;;;;;;5071690;28;20039;-80
2021/11/05 01:27:26;;;;;;;15.25;11.77;;;13.30;84.80;;;;;;5071579;28;20097;-80
2021/11/05 01:29:56;;;;;;;16.92;12.82;;;13.30;84.80;;;;;;5071576;28;20024;-80
2021/11/05 01:32:22;;;;;;;16.63;12.55;;;13.30;84.80;;;;;;5071929;28;20031;-80
2021/11/05 01:34:48;;;;;;;16.50;11.98;;;13.30;84.80;;;;;;5071722;28;20021;-80
2021/11/05 01:37:14;;;;;;;17.02;12.75;;;13.30;84.80;;;;;;5071313;28;20119;-79
2021/11/05 01:39:40;;;;;;;16.77;13.35;;;13.30;84.80;;;;;;5072533;28;20036;-79
2021/11/05 01:42:05;;;;;;;16.90;12.70;;;13.30;84.80;;;;;;5071618;28;20051;-80
2021/11/05 01:44:31;;;;;;;17.52;12.23;;;13.30;84.80;;;;;;5071672;28;20558;-80
2021/11/05 01:46:57;;;;;;;17.77;13.18;;;13.30;84.80;;;;;;5071254;28;20021;-80
2021/11/05 01:49:23;;;;;;;17.50;12.20;;;13.30;84.80;;;;;;5071266;28;20639;-80
2021/11/05 01:51:48;;;;;;;16.67;12.80;;;13.30;84.80;;;;;;5072771;28;20021;-80
2021/11/05 01:54:14;;;;;;;17.95;13.15;;;13.30;84.70;;;;;;5071571;28;20465;-79
2021/11/05 01:56:42;;;;;;;17.98;12.75;;;13.30;84.70;;;;;;5071099;28;20023;-79
2021/11/05 01:59:20;;;;;;;16.40;12.90;;;13.30;84.70;;;;;;5072444;28;20017;-80
2021/11/05 02:01:45;;;;;;;16.38;12.75;;;13.30;84.80;;;;;;5071391;28;20024;-80
2021/11/05 02:04:11;;;;;;;15.27;11.80;;;13.30;84.80;;;;;;5071356;28;20017;-80
2021/11/05 02:06:36;;;;;;;16.40;12.73;;;13.30;84.70;;;;;;5071041;28;20444;-79
2021/11/05 02:09:02;;;;;;;16.30;12.38;;;13.30;84.70;;;;;;5072482;28;20090;-79
2021/11/05 02:11:28;;;;;;;17.05;12.50;;;13.30;84.70;;;;;;5071335;28;20071;-80
2021/11/05 02:13:55;;;;;;;16.88;13.70;;;13.30;84.70;;;;;;5071230;28;20059;-80
2021/11/05 02:16:22;;;;;;;17.60;13.35;;;13.30;84.70;;;;;;5071327;28;20036;-79
2021/11/05 02:18:49;;;;;;;17.98;13.38;;;13.30;84.70;;;;;;5072032;28;20405;-80
2021/11/05 02:21:18;;;;;;;16.92;12.82;;;13.30;84.80;;;;;;5071163;28;20032;-80
2021/11/05 02:23:45;;;;;;;15.52;11.77;;;13.30;84.80;;;;;;5071113;28;20375;-80
2021/11/05 02:26:11;;;;;;;17.35;13.48;;;13.30;84.80;;;;;;5073513;28;20078;-80
2021/11/05 02:28:38;;;;;;;16.77;12.15;;;13.30;84.80;;;;;;5075126;28;20021;-80
2021/11/05 02:31:05;;;;;;;17.27;13.18;;;13.30;84.80;;;;;;5076174;28;20036;-80
2021/11/05 02:33:30;;;;;;;17.58;13.23;;;13.30;84.80;;;;;;5076403;28;20025;-78
2021/11/05 02:35:56;;;;;;;17.55;13.13;;;13.30;84.80;;;;;;5074804;28;20142;-80
2021/11/05 02:38:22;;;;;;;18.38;13.10;;;13.30;84.90;;;;;;5075019;28;20035;-79
2021/11/05 02:40:48;;;;;;;18.02;13.55;;;13.30;84.80;;;;;;5076063;28;20086;-80
2021/11/05 02:43:13;;;;;;;16.38;13.00;;;13.30;84.80;;;;;;5075019;28;20116;-79
2021/11/05 02:45:47;;;;;;;21.00;14.20;;;13.30;84.90;;;;;;5075831;28;20060;-80
2021/11/05 02:48:13;;;;;;;17.88;13.15;;;13.30;84.80;;;;;;5076025;28;20366;-80
2021/11/05 02:50:39;;;;;;;18.30;13.48;;;13.30;84.80;;;;;;5130370;22;20055;-74
2021/11/05 02:53:04;;;;;;;18.02;12.63;;;13.30;84.80;;;;;;5075732;28;20474;-75
2021/11/05 02:55:30;;;;;;;18.17;13.23;;;13.30;84.80;;;;;;5074050;28;20659;-75
2021/11/05 02:57:55;;;;;;;19.73;13.77;;;13.30;84.80;;;;;;5075733;28;20358;-75
2021/11/05 03:00:21;;;;;;;17.80;13.45;;;13.30;84.80;;;;;;5074231;28;20042;-75
2021/11/05 03:02:47;;;;;;;16.63;12.85;;;13.30;84.80;;;;;;5075579;28;20039;-75
2021/11/05 03:05:12;;;;;;;17.38;12.77;;;13.30;84.80;;;;;;5074217;28;20074;-75
2021/11/05 03:07:38;;;;;;;16.10;12.35;;;13.30;84.80;;;;;;5075565;28;20017;-75
2021/11/05 03:10:06;;;;;;;17.05;12.88;;;13.30;84.80;;;;;;5071687;28;20024;-75
2021/11/05 03:12:32;;;;;;;17.92;13.00;;;13.40;84.80;;;;;;5070670;28;20033;-75
2021/11/05 03:14:58;;;;;;;17.05;12.63;;;13.30;84.70;;;;;;5054098;28;20028;-74
2021/11/05 03:17:24;;;;;;;16.98;12.50;;;13.40;84.70;;;;;;5053915;28;20029;-75
2021/11/05 03:19:51;;;;;;;17.70;12.20;;;13.40;84.70;;;;;;5053535;28;20024;-75
2021/11/05 03:22:17;;;;;;;17.38;13.20;;;13.40;84.60;;;;;;5054015;28;20021;-75
2021/11/05 03:24:42;;;;;;;16.70;12.52;;;13.40;84.60;;;;;;5053942;28;20482;-74
2021/11/05 03:27:08;;;;;;;18.00;12.93;;;13.40;84.60;;;;;;5053649;28;20486;-74
2021/11/05 03:29:34;;;;;;;17.35;12.85;;;13.40;84.60;;;;;;5053894;28;20569;-75
2021/11/05 03:31:59;;;;;;;16.30;12.45;;;13.40;84.50;;;;;;5055021;28;20079;-75
2021/11/05 03:34:26;;;;;;;18.33;12.98;;;13.40;84.50;;;;;;5055006;28;20095;-75
2021/11/05 03:36:52;;;;;;;16.45;12.23;;;13.40;84.50;;;;;;5053472;28;20021;-74
2021/11/05 03:39:17;;;;;;;16.05;12.13;;;13.40;84.50;;;;;;5053502;28;20094;-74
2021/11/05 03:41:43;;;;;;;17.17;12.48;;;13.40;84.50;;;;;;5053774;28;20028;-75
2021/11/05 03:44:09;;;;;;;16.33;12.50;;;13.50;84.60;;;;;;5053583;28;20072;-75
2021/11/05 03:46:35;;;;;;;17.52;12.88;;;13.40;84.50;;;;;;5053403;28;20478;-75
2021/11/05 03:49:03;;;;;;;17.55;12.38;;;13.40;84.60;;;;;;5054817;28;20032;-74
2021/11/05 03:51:29;;;;;;;18.20;13.07;;;13.40;84.70;;;;;;5053412;28;20133;-74
2021/11/05 03:53:54;;;;;;;17.00;13.43;;;13.40;84.80;;;;;;5053415;28;20085;-74
2021/11/05 03:56:20;;;;;;;18.33;13.30;;;13.40;84.90;;;;;;5054285;28;20028;-75
2021/11/05 03:58:46;;;;;;;16.95;12.50;;;13.30;85.00;;;;;;5054580;28;20029;-74
2021/11/05 04:01:11;;;;;;;20.40;12.52;;;13.30;85.00;;;;;;5053176;28;20021;-74
2021/11/05 04:03:37;;;;;;;20.33;13.02;;;13.30;85.10;;;;;;5053319;28;20025;-74
2021/11/05 04:06:03;;;;;;;18.45;12.77;;;13.30;85.20;;;;;;5053027;28;20021;-75
2021/11/05 04:08:29;;;;;;;18.42;13.55;;;13.30;85.20;;;;;;5053121;28;20029;-75
2021/11/05 04:10:57;;;;;;;18.83;13.15;;;13.30;85.80;;;;;;5053074;28;20398;-74
2021/11/05 04:13:22;;;;;;;17.70;12.30;;;13.30;85.30;;;;;;5053059;28;20375;-74
2021/11/05 04:15:48;;;;;;;18.38;12.75;;;13.30;85.20;;;;;;5054103;28;20040;-75
2021/11/05 04:18:14;;;;;;;20.52;13.38;;;13.30;85.30;;;;;;5053784;28;20025;-74
2021/11/05 04:20:40;;;;;;;18.10;12.73;;;13.30;85.30;;;;;;5054023;28;20056;-75
2021/11/05 04:23:06;;;;;;;18.83;12.48;;;13.30;85.30;;;;;;5054166;28;20017;-75
2021/11/05 04:25:34;;;;;;;17.33;12.70;;;13.30;85.30;;;;;;5052438;28;20107;-76
2021/11/05 04:28:00;;;;;;;17.95;13.40;;;13.30;85.30;;;;;;5052868;28;20025;-76
2021/11/05 04:30:25;;;;;;;18.52;13.38;;;13.30;85.30;;;;;;5052748;28;20060;-76
2021/11/05 04:32:51;;;;;;;17.83;12.45;;;13.30;85.30;;;;;;5052719;28;20056;-76
2021/11/05 04:35:16;;;;;;;18.70;13.32;;;13.30;85.80;;;;;;5052384;28;20025;-75
2021/11/05 04:37:42;;;;;;;19.80;12.88;;;13.30;85.30;;;;;;5053843;28;20075;-76
2021/11/05 04:40:08;;;;;;;18.67;12.25;;;13.30;85.30;;;;;;5052473;28;20398;-75
2021/11/05 04:42:34;;;;;;;17.45;13.07;;;13.30;85.30;;;;;;5053647;28;20021;-75
2021/11/05 04:44:59;;;;;;;17.50;12.48;;;13.30;85.20;;;;;;5053674;28;20024;-74
2021/11/05 04:47:25;;;;;;;17.38;12.55;;;13.30;85.30;;;;;;5052155;28;20017;-76
2021/11/05 04:49:50;;;;;;;18.17;12.52;;;13.30;85.20;;;;;;5052917;28;20033;-75
2021/11/05 04:52:16;;;;;;;18.20;12.38;;;13.30;85.20;;;;;;5052264;28;20054;-76
2021/11/05 04:54:41;;;;;;;18.20;13.30;;;13.30;85.20;;;;;;5052294;28;20110;-75
2021/11/05 04:57:09;;;;;;;19.20;12.73;;;13.30;85.20;;;;;;5051861;28;20032;-77
2021/11/05 04:59:35;;;;;;;18.38;12.27;;;13.30;85.20;;;;;;5053413;28;20031;-76
2021/11/05 05:02:02;;;;;;;18.15;12.25;;;13.30;85.20;;;;;;5053304;28;20078;-76
2021/11/05 05:04:28;;;;;;;17.35;12.05;;;13.30;85.10;;;;;;5053341;28;20071;-76
2021/11/05 05:06:54;;;;;;;18.75;12.45;;;13.30;85.10;;;;;;5051804;28;20032;-76
2021/11/05 05:09:19;;;;;;;18.42;12.95;;;13.30;85.10;;;;;;5051987;28;20021;-75
2021/11/05 05:11:46;;;;;;;18.60;12.93;;;13.30;85.10;;;;;;5062268;28;20027;-76
2021/11/05 05:14:14;;;;;;;17.40;12.45;;;13.30;85.10;;;;;;5073536;28;20016;-75
2021/11/05 05:16:40;;;;;;;19.38;12.40;;;13.30;85.10;;;;;;5072839;28;20082;-75
2021/11/05 05:19:05;;;;;;;18.58;12.48;;;13.30;85.10;;;;;;5071243;28;20020;-74
2021/11/05 05:21:31;;;;;;;16.67;12.00;;;13.30;85.10;;;;;;5072816;28;20085;-74
2021/11/05 05:23:56;;;;;;;16.63;11.35;;;13.30;85.10;;;;;;5070812;28;20028;-75
2021/11/05 05:26:22;;;;;;;16.48;12.05;;;13.30;85.10;;;;;;5071333;28;20038;-75
2021/11/05 05:28:48;;;;;;;18.25;13.05;;;13.30;85.10;;;;;;5072935;28;20056;-76
2021/11/05 05:31:14;;;;;;;17.17;11.82;;;13.30;85.00;;;;;;5072669;28;20056;-77
2021/11/05 05:33:41;;;;;;;17.33;11.95;;;13.30;85.00;;;;;;5071543;28;20028;-75
2021/11/05 05:36:08;;;;;;;17.88;12.15;;;13.20;85.00;;;;;;5071316;28;20025;-76
2021/11/05 05:38:34;;;;;;;16.40;11.63;;;13.30;85.00;;;;;;5071555;28;20025;-75
2021/11/05 05:40:59;;;;;;;16.05;11.88;;;13.30;85.00;;;;;;5071295;28;20025;-74
2021/11/05 05:43:26;;;;;;;17.77;12.60;;;13.30;85.00;;;;;;5071717;28;20554;-75
2021/11/05 05:45:51;;;;;;;17.40;11.38;;;13.30;85.00;;;;;;5071236;28;20024;-74
2021/11/05 05:48:17;;;;;;;15.50;11.10;;;13.30;85.00;;;;;;5071416;28;20046;-74
2021/11/05 05:50:43;;;;;;;17.67;11.98;;;13.30;85.10;;;;;;5071210;28;20028;-74
2021/11/05 05:53:09;;;;;;;16.73;12.07;;;13.30;85.00;;;;;;5071393;28;20029;-75
2021/11/05 05:55:35;;;;;;;17.20;11.10;;;13.20;85.00;;;;;;5071091;28;20043;-74
2021/11/05 05:58:01;;;;;;;15.73;11.30;;;13.30;85.00;;;;;;5071282;28;20073;-75
2021/11/05 06:00:29;;;;;;;16.40;11.57;;;13.30;85.00;;;;;;5070307;28;20059;-74
2021/11/05 06:02:55;;;;;;;16.83;11.43;;;13.30;85.10;;;;;;5071026;28;20054;-77
2021/11/05 06:05:20;;;;;;;15.85;12.05;;;13.30;85.10;;;;;;5067954;28;20029;-75
2021/11/05 06:07:46;;;;;;;17.20;12.35;;;13.30;85.00;;;;;;5067113;28;20470;-75
2021/11/05 06:10:12;;;;;;;16.63;11.68;;;13.30;85.00;;;;;;5068172;28;20070;-75
2021/11/05 06:12:37;;;;;;;16.20;11.60;;;13.30;85.00;;;;;;5060321;28;20028;-75
2021/11/05 06:15:04;;;;;;;15.55;11.10;;;13.30;85.00;;;;;;5048234;28;20025;-75
2021/11/05 06:17:29;;;;;;;15.40;11.00;;;13.30;84.90;;;;;;5048045;28;20082;-76
2021/11/05 06:19:55;;;;;;;16.75;11.32;;;13.40;84.90;;;;;;5047488;28;20100;-76
2021/11/05 06:22:21;;;;;;;15.27;11.15;;;13.30;84.80;;;;;;5046714;28;20024;-73
2021/11/05 06:24:47;;;;;;;16.73;11.00;;;13.40;84.80;;;;;;5067310;28;20020;-74
2021/11/05 06:27:12;;;;;;;16.38;11.20;;;13.40;84.80;;;;;;5066929;28;20044;-75
2021/11/05 06:29:39;;;;;;;16.02;11.02;;;13.40;84.70;;;;;;5053952;28;20407;-74
2021/11/05 06:32:05;;;;;;;16.45;11.50;;;13.40;84.70;;;;;;5051193;28;20125;-74
2021/11/05 06:34:31;;;;;;;16.23;11.00;;;13.40;84.60;;;;;;5065365;28;20032;-74
2021/11/05 06:36:57;;;;;;;16.63;11.27;;;13.40;84.60;;;;;;5065355;28;20607;-74
2021/11/05 06:39:24;;;;;;;17.45;11.15;;;13.40;84.60;;;;;;5066666;28;20070;-73
2021/11/05 06:41:50;;;;;;;14.65;10.45;;;13.40;84.60;;;;;;5066724;28;20099;-75
2021/11/05 06:44:15;;;;;;;13.23;9.65;;;13.40;84.50;;;;;;5066815;28;20033;-74
2021/11/05 06:46:41;;;;;;;17.00;10.98;;;13.40;84.60;;;;;;5065566;28;20159;-75
2021/11/05 06:49:06;;;;;;;17.42;11.35;;;13.40;84.70;;;;;;5066379;28;20028;-75
2021/11/05 06:51:32;;;;;;;16.40;10.68;;;13.30;84.70;;;;;;5067173;28;20409;-75
2021/11/05 06:53:58;;;;;;;15.30;10.85;;;13.30;84.90;;;;;;5066418;28;20389;-73
2021/11/05 06:56:23;;;;;;;15.77;10.55;;;13.30;85.00;;;;;;5063524;28;20025;-74
2021/11/05 06:58:49;;;;;;;15.43;10.45;;;13.30;85.10;;;;;;5063804;28;20086;-76
2021/11/05 07:01:15;;;;;;;16.50;10.88;;;13.30;85.10;;;;;;5061961;28;20428;-74
2021/11/05 07:03:41;;;;;;;15.20;10.00;;;13.20;85.10;;;;;;5055048;28;20021;-74
2021/11/05 07:06:06;;;;;;;18.35;11.15;;;13.30;85.30;;;;;;5060244;28;20031;-74
2021/11/05 07:08:32;;;;;;;15.20;10.20;;;13.30;85.30;;;;;;5065161;28;20470;-75
2021/11/05 07:10:59;;;;;;;15.93;11.05;;;13.30;85.30;;;;;;5059861;28;20028;-75
2021/11/05 07:13:25;;;;;;;16.45;11.10;;;13.30;85.30;;;;;;5056986;28;20481;-75
2021/11/05 07:15:52;;;;;;;14.15;10.07;;;13.30;85.30;;;;;;5066236;28;20162;-74
2021/11/05 07:18:18;;;;;;;15.00;9.93;;;13.20;85.30;;;;;;5065933;28;20119;-74
2021/11/05 07:20:44;;;;;;;15.38;10.07;;;13.20;85.30;;;;;;5066372;28;20181;-74
2021/11/05 07:23:11;;;;;;;15.38;10.05;;;13.20;85.20;;;;;;5068075;28;20036;-76
2021/11/05 07:25:37;;;;;;;13.45;9.68;;;13.30;85.30;;;;;;5066246;28;20093;-75
2021/11/05 07:28:03;;;;;;;14.95;9.63;;;13.30;85.30;;;;;;5057220;28;20020;-74
2021/11/05 07:30:30;;;;;;;16.30;10.93;;;13.30;85.30;;;;;;5057520;28;20039;-74
2021/11/05 07:32:56;;;;;;;14.68;9.63;;;13.30;85.30;;;;;;5063284;28;20025;-75
2021/11/05 07:35:22;;;;;;;14.38;9.48;;;13.20;85.20;;;;;;5069533;28;20490;-74
2021/11/05 07:37:48;;;;;;;16.70;10.25;;;13.30;85.30;;;;;;5068422;28;20024;-75
2021/11/05 07:40:15;;;;;;;15.75;9.73;;;13.20;85.30;;;;;;5069012;28;20025;-75
2021/11/05 07:42:41;;;;;;;17.00;9.90;;;13.20;85.20;;;;;;5066601;28;20031;-73
2021/11/05 07:45:10;;;;;;;15.43;9.82;;;13.30;85.10;;;;;;5066242;28;20036;-74
2021/11/05 07:47:36;;;;;;;14.27;9.43;;;13.20;85.10;;;;;;5068056;28;20024;-75
2021/11/05 07:50:04;;;;;;;16.33;9.38;;;13.20;85.10;;;;;;5066498;28;20279;-75
2021/11/05 07:52:30;;;;;;;14.05;9.55;;;13.30;85.20;;;;;;5066716;28;20096;-75
2021/11/05 07:54:55;;;;;;;15.32;9.48;;;13.20;85.20;;;;;;5066907;28;20490;-74
2021/11/05 07:57:21;;;;;;;18.27;9.57;;;13.30;85.20;;;;;;5068615;28;20074;-75
2021/11/05 07:59:47;;;;;;;25.85;10.95;;;13.20;84.20;;;;;;5066342;28;20101;-74
2021/11/05 08:02:13;;;;;;;43.08;12.45;;;13.20;84.10;;;;;;5066467;28;20031;-75
2021/11/05 08:04:39;;;;;;;36.50;11.82;;;13.20;84.10;;;;;;5066970;28;20377;-75
2021/11/05 08:07:05;;;;;;;41.33;13.07;;;13.10;84.10;;;;;;5066083;28;20032;-76
2021/11/05 08:09:30;;;;;;;40.97;12.73;;;13.20;84.30;;;;;;5067441;28;20674;-73
2021/11/05 08:11:56;;;;;;;45.25;12.23;;;13.20;84.40;;;;;;5066424;28;20033;-73
2021/11/05 08:14:22;;;;;;;33.85;12.05;;;13.20;84.50;;;;;;5066245;28;20033;-74
2021/11/05 08:16:47;;;;;;;32.30;11.73;;;13.20;84.40;;;;;;5066301;28;20117;-75
2021/11/05 08:19:13;;;;;;;33.47;12.02;;;13.20;84.20;;;;;;5065888;28;20078;-76
2021/11/05 08:21:39;;;;;;;28.30;11.25;;;13.20;84.20;;;;;;5067225;28;20028;-76
2021/11/05 08:24:06;;;;;;;29.00;11.88;;;13.20;84.30;;;;;;5066539;28;20060;-74
2021/11/05 08:26:32;;;;;;;27.27;10.45;;;13.20;84.30;;;;;;5066775;28;20021;-74
2021/11/05 08:28:59;;;;;;;24.23;10.35;;;13.30;84.50;;;;;;5065821;28;20024;-74
2021/11/05 08:31:25;;;;;;;27.15;10.43;;;13.20;84.50;;;;;;5067427;28;20025;-75
2021/11/05 08:33:52;;;;;;;27.83;10.27;;;13.20;84.60;;;;;;5065760;28;20199;-73
2021/11/05 08:36:22;;;;;;;28.42;10.65;;;13.20;84.60;;;;;;5066943;28;20028;-75
2021/11/05 08:38:47;;;;;;;23.60;10.02;;;13.30;84.70;;;;;;5066014;28;20405;-75
2021/11/05 08:41:17;;;;;;;26.35;10.30;;;13.20;84.70;;;;;;5067050;28;20040;-76
2021/11/05 08:43:45;;;;;;;26.25;9.80;;;13.20;84.60;;;;;;5066024;28;20024;-75
2021/11/05 08:46:16;;;;;;;30.38;9.95;;;13.20;84.20;;;;;;5065422;28;20021;-74
2021/11/05 08:48:42;;;;;;;31.05;10.77;;;13.20;84.40;;;;;;5065646;28;20023;-74
2021/11/05 08:51:10;;;;;;;37.47;10.15;;;13.20;84.40;;;;;;5066587;28;20119;-74
2021/11/05 08:53:36;;;;;;;25.30;8.98;;;13.30;84.50;;;;;;5067116;28;20047;-74
2021/11/05 08:56:01;;;;;;;24.38;10.13;;;13.20;84.50;;;;;;5066363;28;20478;-75
2021/11/05 08:58:27;;;;;;;25.85;10.05;;;13.20;84.60;;;;;;5065541;28;20032;-75
2021/11/05 09:00:53;;;;;;;19.58;9.35;;;13.20;84.60;;;;;;5066547;28;20031;-75
2021/11/05 09:03:19;;;;;;;21.35;8.80;;;13.30;84.70;;;;;;5065146;28;20020;-75
2021/11/05 09:05:44;;;;;;;22.00;9.27;;;13.30;84.70;;;;;;5065519;28;20082;-75
2021/11/05 09:08:10;;;;;;;20.67;9.18;;;13.20;85.20;;;;;;5065208;28;20086;-75
2021/11/05 09:10:36;;;;;;;19.77;8.50;;;13.30;84.70;;;;;;5065103;28;20059;-73
2021/11/05 09:13:04;;;;;;;16.35;8.73;;;13.20;84.70;;;;;;5065290;28;20024;-75
2021/11/05 09:15:29;;;;;;;17.80;8.57;;;13.30;84.80;;;;;;5066254;28;20032;-76
2021/11/05 09:17:57;;;;;;;20.35;8.68;;;13.30;84.80;;;;;;5065227;28;20082;-74
2021/11/05 09:20:23;;;;;;;15.50;8.77;;;13.30;84.80;;;;;;5065017;28;20039;-75
2021/11/05 09:22:50;;;;;;;16.92;8.35;;;13.30;84.70;;;;;;5066643;28;20323;-74
2021/11/05 09:25:16;;;;;;;16.77;8.23;;;13.30;84.70;;;;;;5064610;28;20020;-74
2021/11/05 09:27:43;;;;;;;15.35;8.95;;;13.30;84.70;;;;;;5066264;28;20117;-74
2021/11/05 09:30:10;;;;;;;16.25;8.40;;;13.30;84.70;;;;;;5066254;28;20025;-76
2021/11/05 09:32:36;;;;;;;15.82;8.00;;;13.40;84.70;;;;;;5064869;28;20555;-74
2021/11/05 09:35:02;;;;;;;14.23;8.13;;;13.30;84.60;;;;;;5066504;28;20032;-77
2021/11/05 09:37:28;;;;;;;18.42;8.50;;;13.40;84.70;;;;;;5064342;28;20082;-75
2021/11/05 09:39:53;;;;;;;15.00;8.05;;;13.40;84.70;;;;;;5064658;28;20090;-75
2021/11/05 09:42:19;;;;;;;14.95;8.27;;;13.30;84.70;;;;;;5066290;28;20031;-75
2021/11/05 09:44:45;;;;;;;16.48;8.55;;;13.40;84.80;;;;;;5066225;28;20020;-75
2021/11/05 09:47:14;;;;;;;15.38;7.65;;;13.30;84.70;;;;;;5064476;28;20027;-75
2021/11/05 09:49:40;;;;;;;15.27;7.95;;;13.40;84.70;;;;;;5064197;28;20036;-74
2021/11/05 09:52:06;;;;;;;15.18;8.18;;;13.30;84.70;;;;;;5064548;28;20028;-74
2021/11/05 09:54:34;;;;;;;13.45;7.68;;;13.30;84.70;;;;;;5065858;28;20024;-76
2021/11/05 09:57:02;;;;;;;13.95;7.90;;;13.40;84.80;;;;;;5064147;28;20052;-74
2021/11/05 09:59:28;;;;;;;13.20;7.50;;;13.40;84.80;;;;;;5064498;28;20111;-75
2021/11/05 10:01:53;;;;;;;13.77;8.00;;;13.30;85.00;;;;;;5065699;28;20108;-74
2021/11/05 10:04:19;;;;;;;14.77;7.53;;;13.30;85.00;;;;;;5063890;28;20266;-74
2021/11/05 10:07:02;;;;;;;14.65;7.40;;;13.30;85.20;;;;;;5064194;28;20472;-74
2021/11/05 10:09:43;;;;;;;13.25;6.90;;;13.30;85.30;;;;;;5065690;28;20113;-75
2021/11/05 10:12:15;;;;;;;15.48;7.72;;;13.30;85.40;;;;;;5064200;28;20028;-76
2021/11/05 10:14:42;;;;;;;11.52;6.63;;;13.20;85.40;;;;;;5063075;28;20127;-76
2021/11/05 10:17:11;;;;;;;12.95;6.72;;;13.20;85.50;;;;;;5063780;28;20687;-74
2021/11/05 10:19:53;;;;;;;13.15;7.20;;;13.20;85.50;;;;;;5064398;28;20020;-75
2021/11/05 10:22:46;;;;;;;13.52;7.05;;;13.20;85.60;;;;;;5064084;28;20055;-73
2021/11/05 10:25:21;;;;;;;13.00;6.93;;;13.20;85.60;;;;;;5063743;28;20115;-74
2021/11/05 10:27:58;;;;;;;11.48;6.90;;;13.20;85.70;;;;;;5064636;28;20503;-74
2021/11/05 10:30:23;;;;;;;12.55;7.00;;;13.20;85.70;;;;;;5064342;28;20119;-74
2021/11/05 10:32:58;;;;;;;12.25;6.65;;;13.20;85.60;;;;;;5064344;28;20230;-75
2021/11/05 10:35:24;;;;;;;12.38;6.70;;;13.20;85.60;;;;;;5064025;28;20021;-74
2021/11/05 10:38:01;;;;;;;11.48;6.25;;;13.20;85.60;;;;;;5064091;28;20032;-75
2021/11/05 10:40:33;;;;;;;12.45;7.00;;;13.20;85.70;;;;;;5064003;28;20080;-76
2021/11/05 10:42:58;;;;;;;;;;;13.20;85.70;;;;;;5064855;28;20016;-75
2021/11/05 10:45:25;;;;;;;14.18;6.38;;;13.20;85.70;;;;;;5054030;28;20003;-74
2021/11/05 10:47:54;;;;;;;11.40;6.22;;;13.20;85.70;;;;;;5057362;28;20013;-76
2021/11/05 10:50:22;;;;;;;10.32;6.30;;;13.20;85.70;;;;;;5061389;28;20098;-74
2021/11/05 10:53:08;;;;;;;10.75;6.35;;;13.20;85.70;;;;;;5061271;28;20363;-74
2021/11/05 10:55:50;;;;;;;11.07;5.75;;;13.20;85.70;;;;;;5056296;28;20096;-75
2021/11/05 10:58:37;;;;;;;10.65;6.07;;;13.30;85.70;;;;;;5064284;28;20081;-74
2021/11/05 11:01:05;;;;;;;11.65;6.53;;;13.30;85.70;;;;;;5065901;28;20305;-75
2021/11/05 11:03:38;;;;;;;11.90;6.90;;;13.30;85.70;;;;;;5066950;28;20021;-74
2021/11/05 11:06:05;;;;;;;10.38;6.30;;;13.30;85.70;;;;;;5066484;28;20033;-74
2021/11/05 11:08:41;;;;;;;11.88;6.20;;;13.30;85.70;;;;;;5067032;28;20024;-73
2021/11/05 11:11:14;;;;;;;11.48;6.60;;;13.30;85.70;;;;;;5067603;28;20028;-74
2021/11/05 11:13:40;;;;;;;11.65;5.97;;;13.30;85.70;;;;;;5067304;28;20032;-74
2021/11/05 11:16:09;;;;;;;9.77;6.15;;;13.30;86.20;;;;;;5068116;28;20031;-74
2021/11/05 11:18:50;;;;;;;9.70;6.13;;;13.30;85.70;;;;;;5066812;28;20035;-72
2021/11/05 11:21:18;;;;;;;9.88;6.30;;;13.30;85.80;;;;;;5066764;28;20121;-72
2021/11/05 11:23:44;;;;;;;10.43;6.18;;;13.30;85.80;;;;;;5067093;28;20033;-74
2021/11/05 11:26:12;;;;;;;9.43;5.95;;;13.30;85.80;;;;;;5066855;28;20291;-75
2021/11/05 11:28:38;;;;;;;10.27;5.93;;;13.30;85.80;;;;;;5066992;28;20024;-73
2021/11/05 11:31:04;;;;;;;9.13;6.05;;;13.40;85.80;;;;;;5066750;28;20030;-75
2021/11/05 11:33:30;;;;;;;10.02;6.00;;;13.30;85.80;;;;;;5067198;28;20494;-77
2021/11/05 11:35:57;;;;;;;10.98;6.50;;;13.30;85.80;;;;;;5067758;28;20029;-75
2021/11/05 11:38:22;;;;;;;11.55;6.15;;;13.30;85.80;;;;;;5068386;28;20025;-75
2021/11/05 11:40:49;;;;;;;10.25;5.82;;;13.30;85.80;;;;;;5067911;28;20109;-76
2021/11/05 11:43:17;;;;;;;11.65;6.03;;;13.30;85.80;;;;;;5067989;28;20025;-72
2021/11/05 11:45:45;;;;;;;10.70;5.88;;;13.30;85.80;;;;;;5066709;28;20478;-74
2021/11/05 11:48:11;;;;;;;12.23;6.47;;;13.30;85.80;;;;;;5068541;28;20612;-75
2021/11/05 11:50:38;;;;;;;10.60;5.97;;;13.30;85.80;;;;;;5066714;28;20044;-75
2021/11/05 11:53:08;;;;;;;9.63;5.68;;;13.30;85.90;;;;;;5068777;28;20191;-74
2021/11/05 11:55:40;;;;;;;11.18;6.38;;;13.30;85.90;;;;;;5066089;28;20039;-75
2021/11/05 11:58:12;;;;;;;10.77;5.85;;;13.30;85.90;;;;;;5065367;28;20025;-74
2021/11/05 12:00:41;;;;;;;10.73;6.22;;;13.30;85.90;;;;;;5065920;28;20119;-75
2021/11/05 12:03:10;;;;;;;10.57;6.00;;;13.30;85.90;;;;;;5066194;28;20028;-73
2021/11/05 12:05:37;;;;;;;9.70;5.65;;;13.30;86.00;;;;;;5065827;28;20029;-74
2021/11/05 12:08:20;;;;;;;10.80;6.20;;;13.30;86.00;;;;;;5065980;28;20283;-73
2021/11/05 12:11:20;;;;;;;10.15;5.88;;;13.30;86.00;;;;;;5065590;28;20494;-75
2021/11/05 12:13:48;;;;;;;12.07;6.43;;;13.30;86.00;;;;;;5066051;28;20311;-73
2021/11/05 12:16:21;;;;;;;10.30;5.65;;;13.30;86.00;;;;;;5065657;28;20028;-74
2021/11/05 12:19:08;;;;;;;9.50;6.05;;;13.40;86.00;;;;;;5066008;28;20507;-76
2021/11/05 12:21:38;;;;;;;9.40;5.25;;;13.40;86.00;;;;;;5065796;28;20033;-76
2021/11/05 12:24:16;;;;;;;9.73;5.57;;;13.30;86.00;;;;;;5065789;28;20114;-73
2021/11/05 12:26:49;;;;;;;10.52;6.15;;;13.30;85.70;;;;;;5065211;28;20116;-73
2021/11/05 12:29:33;;;;;;;8.93;5.30;;;13.40;85.90;;;;;;5066052;28;20069;-73
2021/11/05 12:32:17;;;;;;;10.10;5.32;;;13.40;86.00;;;;;;5065754;28;20028;-76